LDDU/DBV METAR and TAF weather

Enter ICAO airport designator
Station Type Date Time Source
LDDU METAR 2019/04/19 10:00 UTC NOAA

LDDU 191000Z 31012KT CAVOK 18/05 Q1027 NOSIG


Station Type Date Time Source
LDDU Decoded METAR 2019/04/19 10:00 UTC NOAA

Dubrovnik / Cilipi, Croatia (LDDU) 42-34N 018-16E 165M
Apr 19, 2019 - 06:00 AM EDT / 2019.04.19 1000 UTC
Wind: from the NW (310 degrees) at 14 MPH (12 KT):0
Visibility: greater than 7 mile(s):0
Temperature: 64 F (18 C)
Dew Point: 41 F (5 C)
Relative Humidity: 42%
Pressure (altimeter): 30.33 in. Hg (1027 hPa)
ob: LDDU 191000Z 31012KT CAVOK 18/05 Q1027 NOSIG
cycle: 10

Station Type Date Time Source
LDDU TAF 2019/04/19 06:30 UTC NOAA

TAF LDDU 190525Z 1906/2006 02010KT CAVOK TX20/1911Z TN12/2003Z
BECMG 1908/1910 22009KT
BECMG 1914/1916 30012KT
BECMG 1918/1920 02015KT

Example: see airport list